Time;durP1;ratioP1;P1;durP2;ratioP2;P2;SDS_P1;SDS_P2;PMS_P1;PMS_P2;Temp;Humidity;BMP_temperature;BMP_pressure;BME280_temperature;BME280_humidity;BME280_pressure;Samples;Min_cycle;Max_cycle;Signal;HPM_P1;HPM_P2
2022/05/07 00:02:17;;;;;;;9.50;8.60;;;13.00;99.90;;;;;;5054996;28;20222;-69
2022/05/07 00:04:44;;;;;;;10.13;9.10;;;12.90;99.90;;;;;;5055116;28;20285;-67
2022/05/07 00:07:12;;;;;;;9.10;7.85;;;12.90;99.90;;;;;;5055225;28;20608;-69
2022/05/07 00:09:39;;;;;;;9.38;8.30;;;12.80;99.90;;;;;;5055463;28;20295;-69
2022/05/07 00:12:07;;;;;;;8.95;7.55;;;12.80;99.90;;;;;;5054936;28;20195;-69
2022/05/07 00:14:35;;;;;;;11.30;8.88;;;12.80;99.90;;;;;;5055050;28;20314;-69
2022/05/07 00:19:47;;;;;;;11.43;9.48;;;12.80;99.90;;;;;;5055087;28;20556;-69
2022/05/07 00:22:15;;;;;;;10.27;8.60;;;12.70;99.90;;;;;;5054021;28;20310;-69
2022/05/07 00:24:42;;;;;;;11.20;9.23;;;12.70;99.90;;;;;;5054969;28;20229;-69
2022/05/07 00:27:09;;;;;;;12.20;10.07;;;12.70;99.90;;;;;;5054666;28;20668;-69
2022/05/07 00:29:36;;;;;;;12.40;10.05;;;12.70;99.90;;;;;;5054806;28;20653;-69
2022/05/07 00:32:03;;;;;;;11.63;10.40;;;12.60;99.90;;;;;;5054561;28;20202;-69
2022/05/07 00:34:29;;;;;;;12.45;9.50;;;12.60;99.90;;;;;;5054619;28;20314;-69
2022/05/07 00:36:56;;;;;;;13.68;10.65;;;12.60;99.90;;;;;;5054733;28;20629;-69
2022/05/07 00:39:25;;;;;;;14.35;11.20;;;12.60;99.90;;;;;;5054593;28;20200;-69
2022/05/07 00:41:52;;;;;;;12.07;10.45;;;12.60;99.90;;;;;;5054486;28;20314;-69
2022/05/07 00:44:20;;;;;;;12.35;9.90;;;12.60;99.90;;;;;;5054058;28;20310;-69
2022/05/07 00:46:49;;;;;;;14.35;10.82;;;12.60;99.90;;;;;;5054484;28;20282;-69
2022/05/07 00:49:16;;;;;;;11.30;10.10;;;12.50;99.90;;;;;;5054501;28;20210;-69
2022/05/07 00:51:42;;;;;;;10.77;9.30;;;12.50;99.90;;;;;;5054456;28;20204;-69
2022/05/07 00:54:10;;;;;;;12.27;10.20;;;12.50;99.90;;;;;;5053883;28;20249;-69
2022/05/07 00:56:38;;;;;;;12.85;10.30;;;12.40;99.90;;;;;;5054409;28;20450;-69
2022/05/07 00:59:06;;;;;;;12.27;9.80;;;12.40;99.90;;;;;;5054214;28;20205;-69
2022/05/07 01:01:33;;;;;;;15.90;10.13;;;12.40;99.90;;;;;;5053898;28;20669;-69
2022/05/07 01:04:00;;;;;;;11.90;10.25;;;12.40;99.90;;;;;;5054015;28;20227;-69
2022/05/07 01:06:27;;;;;;;10.07;8.57;;;12.40;99.90;;;;;;5054183;28;20290;-69
2022/05/07 01:08:54;;;;;;;10.88;9.65;;;12.40;99.90;;;;;;5053970;28;20207;-69
2022/05/07 01:11:21;;;;;;;11.35;9.52;;;12.40;99.90;;;;;;5054042;28;20208;-69
2022/05/07 01:13:50;;;;;;;12.63;10.45;;;12.40;99.90;;;;;;5053903;28;20219;-69
2022/05/07 01:16:17;;;;;;;14.20;10.80;;;12.30;99.90;;;;;;5053771;28;20235;-69
2022/05/07 01:18:44;;;;;;;13.68;11.05;;;12.30;99.90;;;;;;5054150;28;20199;-69
2022/05/07 01:21:14;;;;;;;12.45;10.10;;;12.30;99.90;;;;;;5053899;28;20298;-69
2022/05/07 01:23:43;;;;;;;13.95;11.05;;;12.40;99.90;;;;;;5053740;28;20230;-69
2022/05/07 01:26:10;;;;;;;12.80;10.52;;;12.30;99.90;;;;;;5053876;28;20207;-69
2022/05/07 01:28:37;;;;;;;12.02;10.52;;;12.30;99.90;;;;;;5053496;28;20206;-69
2022/05/07 01:31:05;;;;;;;12.65;10.48;;;12.30;99.90;;;;;;5053638;28;20206;-69
2022/05/07 01:33:34;;;;;;;12.98;11.27;;;12.20;99.90;;;;;;5052663;28;20222;-69
2022/05/07 01:36:02;;;;;;;12.90;10.90;;;12.10;99.90;;;;;;5053506;28;20788;-69
2022/05/07 01:38:31;;;;;;;12.57;10.77;;;12.10;99.90;;;;;;5053553;28;20298;-69
2022/05/07 01:40:59;;;;;;;14.32;11.80;;;12.00;99.90;;;;;;5053586;28;20211;-69
2022/05/07 01:43:27;;;;;;;14.77;11.32;;;11.90;99.90;;;;;;5053190;28;20239;-69
2022/05/07 01:45:54;;;;;;;12.55;11.23;;;11.90;99.90;;;;;;5053336;28;20665;-69
2022/05/07 01:48:20;;;;;;;14.50;10.45;;;11.80;99.90;;;;;;5053639;28;20229;-69
2022/05/07 01:50:47;;;;;;;11.83;10.03;;;11.80;99.90;;;;;;5053598;28;20717;-69
2022/05/07 01:53:14;;;;;;;14.45;10.90;;;11.80;99.90;;;;;;5053328;28;20464;-69
2022/05/07 01:55:43;;;;;;;14.85;11.70;;;11.80;99.90;;;;;;5053312;28;20258;-69
2022/05/07 01:58:11;;;;;;;15.68;11.55;;;11.70;99.90;;;;;;5053366;28;20239;-69
2022/05/07 02:00:40;;;;;;;13.63;10.90;;;11.60;99.90;;;;;;5053497;28;20207;-69
2022/05/07 02:03:07;;;;;;;15.55;11.95;;;11.60;99.90;;;;;;5052991;28;20228;-69
2022/05/07 02:05:34;;;;;;;14.70;11.07;;;11.50;99.90;;;;;;5053073;28;20203;-69
2022/05/07 02:08:01;;;;;;;14.88;11.85;;;11.50;99.90;;;;;;5053426;28;20211;-69
2022/05/07 02:10:29;;;;;;;16.45;12.20;;;11.50;99.90;;;;;;5053369;28;20209;-69
2022/05/07 02:12:57;;;;;;;14.75;11.32;;;11.50;99.90;;;;;;5053031;28;20199;-69
2022/05/07 02:15:24;;;;;;;14.45;11.50;;;11.50;99.90;;;;;;5053653;28;20230;-69
2022/05/07 02:17:51;;;;;;;12.32;10.68;;;11.60;99.90;;;;;;5053886;28;20211;-69
2022/05/07 02:20:18;;;;;;;14.13;11.85;;;11.60;99.90;;;;;;5053181;28;20656;-69
2022/05/07 02:22:45;;;;;;;13.35;10.40;;;11.70;99.90;;;;;;5052938;28;20226;-69
2022/05/07 02:25:12;;;;;;;13.25;10.43;;;11.60;99.90;;;;;;5053220;28;20250;-69
2022/05/07 02:27:41;;;;;;;13.90;10.88;;;11.70;99.90;;;;;;5053273;28;20226;-69
2022/05/07 02:30:10;;;;;;;12.38;10.32;;;11.70;99.90;;;;;;5053101;28;20294;-69
2022/05/07 02:32:37;;;;;;;14.85;11.23;;;11.70;99.90;;;;;;5052928;28;20713;-69
2022/05/07 02:35:05;;;;;;;12.38;9.98;;;11.70;99.90;;;;;;5053150;28;20224;-69
2022/05/07 02:37:32;;;;;;;12.50;10.18;;;11.70;99.90;;;;;;5053042;28;20672;-69
2022/05/07 02:39:58;;;;;;;12.48;10.40;;;11.70;99.90;;;;;;5053094;28;20290;-69
2022/05/07 02:42:33;;;;;;;14.50;10.85;;;11.70;99.90;;;;;;5052647;28;20226;-69
2022/05/07 02:45:01;;;;;;;13.55;11.07;;;11.60;99.90;;;;;;5055183;28;20411;-69
2022/05/07 02:47:29;;;;;;;17.33;11.10;;;11.60;99.90;;;;;;5056833;28;20204;-69
2022/05/07 02:49:56;;;;;;;18.42;11.05;;;11.60;99.90;;;;;;5056742;28;20226;-69
2022/05/07 02:52:22;;;;;;;14.07;11.18;;;11.60;99.90;;;;;;5056460;28;20200;-69
2022/05/07 02:54:49;;;;;;;14.02;10.93;;;11.50;99.90;;;;;;5056348;28;20263;-69
2022/05/07 02:57:16;;;;;;;14.02;11.07;;;11.50;99.90;;;;;;5056690;28;20203;-69
2022/05/07 02:59:43;;;;;;;13.65;10.90;;;11.50;99.90;;;;;;5056513;28;20290;-69
2022/05/07 03:02:10;;;;;;;13.20;10.70;;;11.50;99.90;;;;;;5056379;28;20199;-70
2022/05/07 03:04:38;;;;;;;13.05;10.57;;;11.40;99.90;;;;;;5056217;28;20720;-69
2022/05/07 03:07:05;;;;;;;13.90;11.00;;;11.30;99.90;;;;;;5056533;28;20203;-69
2022/05/07 03:09:32;;;;;;;14.43;10.40;;;11.30;99.90;;;;;;5056108;28;20290;-68
2022/05/07 03:11:58;;;;;;;14.07;11.35;;;11.30;99.90;;;;;;5056167;28;20756;-69
2022/05/07 03:14:25;;;;;;;12.95;11.07;;;11.30;99.90;;;;;;5055967;28;20222;-69
2022/05/07 03:16:52;;;;;;;13.27;10.60;;;11.30;99.90;;;;;;5056158;28;20285;-70
2022/05/07 03:19:19;;;;;;;15.55;11.18;;;11.30;99.90;;;;;;5055972;28;20210;-69
2022/05/07 03:21:47;;;;;;;12.38;9.95;;;11.30;99.90;;;;;;5056317;28;20203;-69
2022/05/07 03:24:14;;;;;;;14.30;11.50;;;11.30;99.90;;;;;;5055634;28;20273;-69
2022/05/07 03:26:41;;;;;;;13.13;10.80;;;11.30;99.90;;;;;;5056021;28;20207;-69
2022/05/07 03:29:08;;;;;;;17.13;11.48;;;11.30;99.90;;;;;;5056114;28;20207;-69
2022/05/07 03:31:37;;;;;;;13.73;10.68;;;11.40;99.90;;;;;;5056022;28;20298;-68
2022/05/07 03:34:04;;;;;;;13.13;10.70;;;11.40;99.90;;;;;;5055590;28;20629;-69
2022/05/07 03:36:31;;;;;;;13.00;10.93;;;11.40;99.90;;;;;;5055806;28;20294;-69
2022/05/07 03:38:59;;;;;;;11.95;10.57;;;11.30;99.90;;;;;;5055792;28;20298;-69
2022/05/07 03:41:25;;;;;;;11.65;10.20;;;11.30;99.90;;;;;;5055801;28;20211;-69
2022/05/07 03:43:52;;;;;;;12.50;11.20;;;11.30;99.90;;;;;;5055592;28;20258;-69
2022/05/07 03:46:21;;;;;;;13.23;10.35;;;11.30;99.90;;;;;;5055625;28;20199;-69
2022/05/07 03:48:48;;;;;;;11.73;10.30;;;11.30;99.90;;;;;;5055829;28;20617;-69
2022/05/07 03:51:15;;;;;;;11.82;10.52;;;11.30;99.90;;;;;;5055728;28;20204;-69
2022/05/07 03:53:41;;;;;;;15.18;11.00;;;11.30;99.90;;;;;;5055137;28;20302;-69
2022/05/07 03:56:10;;;;;;;14.52;10.80;;;11.20;99.90;;;;;;5054793;28;20278;-69
2022/05/07 03:58:37;;;;;;;12.93;10.55;;;11.30;99.90;;;;;;5055343;28;20207;-69
2022/05/07 04:01:04;;;;;;;12.45;10.15;;;11.20;99.90;;;;;;5055654;28;20631;-69
2022/05/07 04:03:31;;;;;;;13.70;11.13;;;11.30;99.90;;;;;;5055098;28;20235;-69
2022/05/07 04:05:59;;;;;;;13.82;11.20;;;11.20;99.90;;;;;;5055191;28;20217;-69
2022/05/07 04:08:26;;;;;;;12.88;10.48;;;11.00;99.90;;;;;;5055356;28;20239;-69
2022/05/07 04:10:53;;;;;;;12.27;10.10;;;11.10;99.90;;;;;;5055422;28;20204;-69
2022/05/07 04:13:21;;;;;;;12.90;9.90;;;11.10;99.90;;;;;;5055091;28;20219;-69
2022/05/07 04:15:48;;;;;;;12.82;10.45;;;11.10;99.90;;;;;;5055006;28;20207;-69
2022/05/07 04:18:15;;;;;;;13.43;10.45;;;11.00;99.90;;;;;;5055217;28;20209;-69
2022/05/07 04:20:41;;;;;;;12.85;9.93;;;11.00;99.90;;;;;;5055099;28;20207;-69
2022/05/07 04:23:08;;;;;;;11.60;9.70;;;11.00;99.90;;;;;;5054639;28;20223;-69
2022/05/07 04:25:35;;;;;;;12.52;10.02;;;11.00;99.90;;;;;;5054792;28;20294;-69
2022/05/07 04:28:02;;;;;;;13.43;11.07;;;11.00;99.90;;;;;;5054812;28;20298;-69
2022/05/07 04:30:30;;;;;;;12.48;10.48;;;11.00;99.90;;;;;;5055060;28;20199;-69
2022/05/07 04:32:57;;;;;;;14.77;10.35;;;11.10;99.90;;;;;;5054550;28;20205;-69
2022/05/07 04:35:24;;;;;;;12.50;10.00;;;11.10;99.90;;;;;;5054910;28;20235;-69
2022/05/07 04:37:51;;;;;;;13.93;10.95;;;10.90;99.90;;;;;;5054750;28;20200;-69
2022/05/07 04:40:17;;;;;;;11.48;10.10;;;10.80;99.90;;;;;;5054617;28;20576;-69
2022/05/07 04:42:44;;;;;;;14.05;10.73;;;10.80;99.90;;;;;;5054290;28;20200;-69
2022/05/07 04:45:13;;;;;;;13.23;9.80;;;10.80;99.90;;;;;;5054529;28;20229;-69
2022/05/07 04:47:42;;;;;;;13.57;10.65;;;10.80;99.90;;;;;;5054269;28;20219;-69
2022/05/07 04:50:09;;;;;;;12.75;10.02;;;10.90;99.90;;;;;;5054403;28;20200;-69
2022/05/07 04:52:38;;;;;;;15.25;11.00;;;11.00;99.90;;;;;;5054302;28;20199;-69
2022/05/07 04:55:05;;;;;;;12.38;10.68;;;10.80;99.90;;;;;;5053931;28;20228;-69
2022/05/07 04:57:32;;;;;;;14.07;12.00;;;10.70;99.90;;;;;;5054371;28;20294;-69
2022/05/07 04:59:59;;;;;;;16.85;11.40;;;10.60;99.90;;;;;;5054287;28;20629;-69
2022/05/07 05:02:26;;;;;;;18.45;11.75;;;10.50;99.90;;;;;;5053982;28;20261;-68
2022/05/07 05:04:54;;;;;;;14.88;11.88;;;10.50;99.90;;;;;;5053720;28;20230;-69
2022/05/07 05:07:21;;;;;;;17.75;12.38;;;10.60;99.90;;;;;;5054024;28;20239;-69
2022/05/07 05:09:48;;;;;;;16.55;12.35;;;10.80;99.90;;;;;;5054109;28;20261;-69
2022/05/07 05:12:15;;;;;;;14.75;11.68;;;10.90;99.90;;;;;;5053886;28;20295;-69
2022/05/07 05:17:26;;;;;;;16.63;13.52;;;11.00;99.90;;;;;;5054360;28;20198;-69
2022/05/07 05:19:54;;;;;;;16.80;12.85;;;11.10;99.90;;;;;;5053944;28;20310;-69
2022/05/07 05:22:21;;;;;;;14.48;11.98;;;11.10;99.90;;;;;;5053735;28;20298;-69
2022/05/07 05:24:48;;;;;;;16.95;13.65;;;11.10;99.90;;;;;;5053464;28;20724;-69
2022/05/07 05:27:15;;;;;;;19.55;13.27;;;11.00;99.90;;;;;;5053757;28;20199;-69
2022/05/07 05:29:41;;;;;;;16.33;13.60;;;11.10;99.90;;;;;;5053668;28;20290;-69
2022/05/07 05:32:09;;;;;;;18.65;13.98;;;11.10;99.90;;;;;;5053593;28;20203;-69
2022/05/07 05:34:36;;;;;;;20.00;13.68;;;11.20;99.90;;;;;;5053690;28;20252;-69
2022/05/07 05:37:04;;;;;;;16.85;13.88;;;11.20;99.90;;;;;;5053640;28;20203;-69
2022/05/07 05:39:31;;;;;;;18.80;13.85;;;11.20;99.90;;;;;;5053716;28;20665;-69
2022/05/07 05:41:59;;;;;;;17.58;13.75;;;11.30;99.90;;;;;;5053805;28;20222;-68
2022/05/07 05:44:26;;;;;;;19.83;14.55;;;11.40;99.90;;;;;;5053130;28;20227;-69
2022/05/07 05:46:52;;;;;;;16.52;13.52;;;11.40;99.90;;;;;;5053659;28;20203;-69
2022/05/07 05:49:19;;;;;;;19.85;13.68;;;11.40;99.90;;;;;;5053597;28;20211;-69
2022/05/07 05:51:46;;;;;;;18.98;16.02;;;11.30;99.90;;;;;;5053724;28;20203;-69
2022/05/07 05:54:14;;;;;;;18.30;14.52;;;11.30;99.90;;;;;;5053100;28;20596;-69
2022/05/07 05:56:41;;;;;;;21.30;14.50;;;11.40;99.90;;;;;;5053529;28;20203;-69
2022/05/07 05:59:08;;;;;;;17.23;14.02;;;11.40;99.90;;;;;;5053356;28;20664;-69
2022/05/07 06:01:35;;;;;;;17.48;14.52;;;11.40;99.90;;;;;;5053437;28;20294;-68
2022/05/07 06:04:01;;;;;;;19.98;15.18;;;11.40;99.90;;;;;;5053074;28;20227;-69
2022/05/07 06:06:28;;;;;;;18.48;14.40;;;11.50;99.90;;;;;;5053399;28;20209;-69
2022/05/07 06:08:55;;;;;;;20.15;15.88;;;11.50;99.90;;;;;;5053265;28;20213;-69
2022/05/07 06:11:23;;;;;;;20.90;15.82;;;11.50;99.90;;;;;;5053303;28;20207;-69
2022/05/07 06:13:50;;;;;;;22.90;14.75;;;11.50;99.90;;;;;;5053112;28;20223;-69
2022/05/07 06:16:17;;;;;;;18.13;14.95;;;11.70;99.90;;;;;;5053321;28;20556;-68
2022/05/07 06:18:44;;;;;;;20.83;14.07;;;11.60;99.90;;;;;;5053636;28;20210;-69
2022/05/07 06:21:11;;;;;;;21.00;15.70;;;11.70;99.90;;;;;;5057163;28;20214;-69
2022/05/07 06:23:38;;;;;;;20.42;14.38;;;11.80;99.90;;;;;;5056700;28;20718;-69
2022/05/07 06:28:50;;;;;;;22.00;15.85;;;11.90;99.90;;;;;;5057238;28;20264;-69
2022/05/07 06:31:17;;;;;;;19.65;15.55;;;11.90;99.90;;;;;;5057382;28;20242;-69
2022/05/07 06:33:44;;;;;;;15.93;13.85;;;11.80;99.90;;;;;;5056550;28;20225;-69
2022/05/07 06:36:11;;;;;;;19.50;15.10;;;11.80;99.90;;;;;;5057036;28;20207;-69
2022/05/07 06:38:39;;;;;;;19.15;15.65;;;11.90;99.90;;;;;;5056923;28;20214;-69
2022/05/07 06:41:06;;;;;;;19.27;15.60;;;11.90;99.90;;;;;;5057079;28;20209;-69
2022/05/07 06:43:34;;;;;;;24.27;16.45;;;11.90;99.90;;;;;;5056742;28;20231;-69
2022/05/07 06:46:03;;;;;;;18.60;15.25;;;12.00;99.90;;;;;;5057064;28;20635;-69
2022/05/07 06:48:30;;;;;;;21.08;15.45;;;11.90;99.90;;;;;;5057158;28;20214;-69
2022/05/07 06:50:57;;;;;;;19.38;16.08;;;12.00;99.90;;;;;;5056798;28;20662;-69
2022/05/07 06:53:24;;;;;;;22.98;14.57;;;12.00;99.90;;;;;;5056426;28;20227;-70
2022/05/07 06:55:58;;;;;;;20.42;14.23;;;12.10;99.90;;;;;;5056663;28;20208;-69
2022/05/07 06:58:27;;;;;;;20.50;14.85;;;12.20;99.90;;;;;;5056592;28;20230;-69
2022/05/07 07:00:54;;;;;;;19.42;13.82;;;12.40;99.90;;;;;;5056508;28;20206;-69
2022/05/07 07:03:23;;;;;;;16.30;13.68;;;12.50;99.90;;;;;;5056035;28;20608;-69
2022/05/07 07:05:50;;;;;;;14.82;12.80;;;12.40;99.90;;;;;;5056330;28;20583;-69
2022/05/07 07:08:17;;;;;;;14.50;12.35;;;12.50;99.90;;;;;;5056276;28;20218;-69
2022/05/07 07:10:45;;;;;;;16.33;12.93;;;12.50;99.90;;;;;;5056223;28;20207;-69
2022/05/07 07:13:12;;;;;;;15.85;13.60;;;12.60;99.90;;;;;;5056422;28;20207;-69
2022/05/07 07:15:40;;;;;;;17.38;13.75;;;12.60;99.90;;;;;;5056323;28;20286;-69
2022/05/07 07:18:09;;;;;;;17.67;14.88;;;12.70;99.90;;;;;;5056103;28;20207;-69
2022/05/07 07:20:40;;;;;;;16.73;14.00;;;12.90;99.90;;;;;;5056229;28;20564;-69
2022/05/07 07:23:10;;;;;;;17.42;13.18;;;13.00;99.90;;;;;;5055972;28;20242;-69
2022/05/07 07:25:39;;;;;;;16.73;13.43;;;13.10;99.90;;;;;;5056191;28;20207;-69
2022/05/07 07:28:06;;;;;;;19.25;13.50;;;13.20;99.90;;;;;;5056051;28;20207;-68
2022/05/07 07:30:33;;;;;;;17.92;13.32;;;13.30;99.90;;;;;;5054677;28;20300;-69
2022/05/07 07:33:00;;;;;;;14.77;12.43;;;13.30;99.90;;;;;;5055733;28;20292;-69
2022/05/07 07:35:27;;;;;;;15.48;13.35;;;13.40;99.90;;;;;;5056046;28;20230;-68
2022/05/07 07:37:56;;;;;;;16.13;13.52;;;13.50;99.90;;;;;;5055766;28;20214;-68
2022/05/07 07:40:23;;;;;;;16.27;13.90;;;13.50;99.90;;;;;;5055758;28;20208;-68
2022/05/07 07:42:50;;;;;;;15.10;13.30;;;13.60;99.90;;;;;;5055606;28;20208;-68
2022/05/07 07:48:03;;;;;;;19.27;14.20;;;13.70;99.90;;;;;;5055671;28;20292;-69
2022/05/07 07:50:32;;;;;;;16.15;13.70;;;13.90;99.90;;;;;;5055524;28;20204;-68
2022/05/07 07:53:02;;;;;;;15.45;13.13;;;14.00;99.90;;;;;;5055234;28;20237;-68
2022/05/07 07:55:29;;;;;;;14.52;11.88;;;14.10;99.90;;;;;;5055242;28;20219;-68
2022/05/07 07:57:56;;;;;;;15.20;12.00;;;14.30;99.90;;;;;;5055443;28;20210;-68
2022/05/07 08:00:24;;;;;;;14.70;11.82;;;14.70;99.90;;;;;;5055333;28;20682;-68
2022/05/07 08:02:52;;;;;;;11.43;10.23;;;15.00;99.90;;;;;;5055209;28;20214;-68
2022/05/07 08:05:22;;;;;;;13.50;10.77;;;15.60;99.90;;;;;;5054908;28;20242;-68
2022/05/07 08:13:18;;;;;;;12.30;10.97;;;18.40;99.90;;;;;;5054938;28;20479;-69
2022/05/07 08:15:45;;;;;;;10.83;9.83;;;19.30;99.20;;;;;;5054863;28;20441;-68
2022/05/07 08:18:12;;;;;;;13.20;10.77;;;20.10;97.60;;;;;;5055101;28;20474;-69
2022/05/07 08:20:41;;;;;;;11.83;10.63;;;20.70;95.60;;;;;;5054970;28;20996;-69
2022/05/07 08:23:08;;;;;;;14.50;11.40;;;21.30;93.70;;;;;;5054848;28;20445;-69
2022/05/07 08:25:36;;;;;;;13.10;11.33;;;23.00;89.90;;;;;;5054646;28;20474;-69
2022/05/07 08:28:04;;;;;;;13.43;12.13;;;24.30;86.50;;;;;;5054718;28;20541;-70
2022/05/07 08:30:31;;;;;;;13.40;12.20;;;24.60;76.50;;;;;;5054810;28;20533;-69
2022/05/07 08:32:58;;;;;;;13.50;12.23;;;25.10;75.90;;;;;;5054503;28;20445;-70
2022/05/07 08:35:25;;;;;;;12.63;11.43;;;25.10;72.90;;;;;;5054764;28;20815;-69
2022/05/07 08:37:52;;;;;;;13.47;12.13;;;25.00;71.60;;;;;;5054490;28;20448;-69
2022/05/07 08:40:20;;;;;;;13.37;12.10;;;25.00;71.10;;;;;;5054676;28;20537;-69
2022/05/07 08:42:48;;;;;;;12.87;11.67;;;24.60;70.90;;;;;;5053904;28;20529;-69
2022/05/07 08:45:15;;;;;;;13.50;12.20;;;24.00;73.70;;;;;;5054472;28;20853;-69
2022/05/07 08:47:43;;;;;;;15.27;13.60;;;23.40;75.10;;;;;;5054455;28;20527;-69
2022/05/07 08:50:12;;;;;;;14.03;12.57;;;22.30;76.20;;;;;;5054480;28;20453;-69
2022/05/07 08:52:41;;;;;;;13.37;12.07;;;21.80;80.50;;;;;;5054214;28;20954;-69
2022/05/07 08:55:11;;;;;;;14.43;12.93;;;21.90;82.30;;;;;;5054036;28;20575;-69
2022/05/07 08:57:38;;;;;;;12.47;11.17;;;22.60;82.90;;;;;;5054375;28;20444;-69
2022/05/07 09:00:08;;;;;;;14.00;12.60;;;23.40;78.40;;;;;;5054183;28;20939;-69
2022/05/07 09:02:41;;;;;;;13.90;12.43;;;24.00;73.80;;;;;;5054089;28;20437;-69
2022/05/07 09:05:10;;;;;;;13.00;11.80;;;25.00;72.10;;;;;;5053863;28;20963;-67
2022/05/07 09:07:36;;;;;;;14.43;12.20;;;25.80;68.30;;;;;;5054007;28;20452;-67
2022/05/07 09:10:10;;;;;;;10.60;9.60;;;27.20;63.70;;;;;;5054098;28;20449;-67
2022/05/07 09:12:37;;;;;;;14.10;12.87;;;28.70;62.70;;;;;;5053823;28;20442;-67
2022/05/07 09:15:05;;;;;;;13.30;12.10;;;28.80;55.30;;;;;;5054009;28;20476;-67
2022/05/07 09:17:34;;;;;;;11.47;10.57;;;28.70;55.30;;;;;;5053991;28;20451;-67
2022/05/07 09:20:11;;;;;;;12.80;11.60;;;28.30;56.60;;;;;;5053770;28;20456;-67
2022/05/07 09:22:49;;;;;;;11.80;10.80;;;28.70;53.50;;;;;;5053758;28;20827;-69
2022/05/07 09:25:21;;;;;;;11.60;10.50;;;28.40;55.00;;;;;;5053712;28;20488;-67
2022/05/07 09:27:48;;;;;;;9.10;8.30;;;28.50;52.00;;;;;;5053529;28;20452;-67
2022/05/07 09:30:23;;;;;;;10.87;9.87;;;27.20;53.10;;;;;;5053779;28;20788;-69
2022/05/07 09:32:53;;;;;;;10.17;9.33;;;27.30;53.20;;;;;;5053409;28;20459;-68
2022/05/07 09:38:07;;;;;;;9.73;8.93;;;27.80;52.50;;;;;;5053798;28;20537;-67
2022/05/07 09:40:38;;;;;;;8.93;7.90;;;27.70;51.70;;;;;;5053507;28;20553;-68
2022/05/07 09:43:06;;;;;;;5.53;5.13;;;27.60;51.20;;;;;;5053209;28;20446;-68
2022/05/07 09:45:33;;;;;;;6.07;5.57;;;27.30;51.40;;;;;;5053610;28;20483;-67
2022/05/07 09:48:02;;;;;;;6.00;5.43;;;28.90;47.60;;;;;;5053537;28;20445;-68
2022/05/07 09:50:47;;;;;;;4.87;4.47;;;30.00;45.80;;;;;;5053235;28;20445;-68
2022/05/07 09:58:47;;;;;;;5.00;4.60;;;29.70;40.10;;;;;;5053584;28;20423;-68
2022/05/07 10:01:27;;;;;;;3.67;3.37;;;27.70;43.20;;;;;;5053497;28;20438;-70
2022/05/07 10:04:06;;;;;;;3.93;3.53;;;26.00;43.70;;;;;;5053094;28;20462;-70
2022/05/07 10:06:42;;;;;;;4.40;4.00;;;25.90;44.10;;;;;;5053183;28;20970;-70
2022/05/07 10:09:28;;;;;;;4.60;4.23;;;27.00;47.00;;;;;;5053523;28;20530;-70
2022/05/07 10:11:57;;;;;;;3.43;3.10;;;27.90;44.50;;;;;;5053263;28;20461;-70
2022/05/07 10:14:26;;;;;;;2.83;2.63;;;27.00;43.50;;;;;;5052944;28;20458;-70
2022/05/07 10:17:00;;;;;;;4.33;3.97;;;26.70;43.10;;;;;;5053468;28;20837;-70
2022/05/07 10:19:39;;;;;;;5.30;4.90;;;27.40;44.30;;;;;;5053262;28;20447;-69
2022/05/07 10:22:21;;;;;;;3.90;3.60;;;27.90;43.70;;;;;;5053107;28;20465;-70
2022/05/07 10:24:49;;;;;;;3.43;3.23;;;27.50;43.90;;;;;;5053187;28;20516;-70
2022/05/07 10:27:23;;;;;;;4.43;4.03;;;27.70;41.10;;;;;;5053121;28;20936;-70
2022/05/07 10:29:51;;;;;;;4.67;4.20;;;27.70;42.90;;;;;;5053147;28;20446;-69
2022/05/07 10:32:19;;;;;;;3.93;3.63;;;27.40;43.00;;;;;;5052958;28;20452;-70
2022/05/07 10:34:56;;;;;;;7.60;6.90;;;28.40;44.80;;;;;;5052831;28;20522;-70
2022/05/07 10:37:23;;;;;;;6.60;6.10;;;27.90;43.20;;;;;;5053109;28;20450;-70
2022/05/07 10:39:52;;;;;;;6.57;6.07;;;26.70;47.00;;;;;;5053096;28;20446;-69
2022/05/07 10:42:21;;;;;;;7.30;6.70;;;25.60;48.80;;;;;;5052857;28;20449;-70
2022/05/07 10:44:49;;;;;;;5.93;4.90;;;24.40;50.30;;;;;;5053038;28;20570;-70
2022/05/07 10:47:18;;;;;;;6.00;5.53;;;24.80;51.80;;;;;;5053727;28;20453;-70
2022/05/07 10:49:56;;;;;;;5.80;5.40;;;24.30;51.40;;;;;;5053171;28;20444;-70
2022/05/07 10:52:34;;;;;;;5.60;5.20;;;23.70;53.20;;;;;;5052890;28;20447;-69
2022/05/07 10:55:06;;;;;;;6.23;5.73;;;23.10;54.70;;;;;;5052819;28;20473;-69
2022/05/07 10:57:44;;;;;;;5.50;5.10;;;22.40;53.60;;;;;;5052646;28;20935;-69
2022/05/07 11:00:13;;;;;;;6.00;5.27;;;21.50;55.80;;;;;;5052778;28;20453;-69
2022/05/07 11:02:40;;;;;;;6.27;5.67;;;20.80;58.90;;;;;;5052715;28;20510;-69
2022/05/07 11:05:09;;;;;;;5.17;4.67;;;20.60;61.30;;;;;;5053607;28;20475;-69
2022/05/07 11:07:37;;;;;;;6.13;5.63;;;20.60;62.30;;;;;;5056288;28;20455;-69
2022/05/07 11:10:04;;;;;;;5.90;5.40;;;20.80;63.50;;;;;;5056432;28;20506;-69
2022/05/07 11:12:31;;;;;;;5.30;4.80;;;21.00;59.80;;;;;;5056086;28;21022;-69
2022/05/07 11:14:58;;;;;;;5.57;5.07;;;21.20;58.90;;;;;;5056311;28;20466;-69
2022/05/07 11:17:34;;;;;;;5.17;4.70;;;21.40;58.40;;;;;;5056243;28;20445;-69
2022/05/07 11:20:02;;;;;;;5.37;4.97;;;21.60;58.10;;;;;;5056192;28;20899;-69
2022/05/07 11:22:31;;;;;;;5.43;4.93;;;22.10;58.10;;;;;;5055722;28;20449;-69
2022/05/07 11:24:58;;;;;;;5.10;4.60;;;22.10;57.00;;;;;;5055986;28;20469;-69
2022/05/07 11:27:31;;;;;;;4.83;4.43;;;21.80;56.00;;;;;;5055928;28;20440;-69
2022/05/07 11:29:58;;;;;;;4.03;3.73;;;21.40;57.60;;;;;;5055992;28;20438;-69
2022/05/07 11:32:24;;;;;;;4.03;3.73;;;21.60;55.40;;;;;;5055888;28;20456;-69
2022/05/07 11:34:57;;;;;;;4.30;3.90;;;21.80;54.80;;;;;;5055914;28;20466;-69
2022/05/07 11:37:24;;;;;;;3.73;3.43;;;21.90;55.30;;;;;;5055910;28;20445;-69
2022/05/07 11:39:55;;;;;;;5.00;4.60;;;22.20;54.20;;;;;;5055702;28;20446;-69
2022/05/07 11:42:33;;;;;;;4.30;4.00;;;22.30;53.20;;;;;;5057091;28;20476;-70
2022/05/07 11:47:53;;;;;;;3.97;3.67;;;22.40;55.20;;;;;;5057517;28;20416;-69
2022/05/07 11:50:21;;;;;;;3.80;3.50;;;22.30;53.20;;;;;;5057255;28;20452;-70
2022/05/07 11:52:48;;;;;;;4.17;3.87;;;22.00;54.60;;;;;;5056688;28;20830;-70
2022/05/07 11:55:18;;;;;;;4.30;4.00;;;21.70;54.40;;;;;;5056552;28;20474;-70
2022/05/07 11:57:47;;;;;;;3.73;3.43;;;21.50;55.40;;;;;;5055571;28;20498;-68
2022/05/07 12:00:21;;;;;;;3.73;3.43;;;21.60;53.70;;;;;;5055533;28;20434;-68
2022/05/07 12:02:55;;;;;;;3.93;3.63;;;21.40;55.30;;;;;;5055229;28;20866;-69
2022/05/07 12:05:23;;;;;;;3.57;3.27;;;21.40;55.10;;;;;;5055338;28;20483;-68
2022/05/07 12:07:52;;;;;;;3.83;3.53;;;21.60;54.70;;;;;;5055214;28;20878;-69
2022/05/07 12:10:22;;;;;;;3.63;3.10;;;21.90;55.10;;;;;;5055252;28;20442;-69
2022/05/07 12:12:49;;;;;;;6.00;5.50;;;22.30;54.10;;;;;;5054982;28;20532;-69
2022/05/07 12:17:51;;;;;;;5.03;4.63;;;22.40;54.70;;;;;;5055162;28;20553;-69
2022/05/07 12:18:03;;;;;;;4.60;4.20;;;22.60;55.70;;;;;;5054047;28;20434;-69
2022/05/07 12:20:30;;;;;;;3.33;3.13;;;22.60;53.50;;;;;;5055154;28;20447;-69
2022/05/07 12:31:11;;;;;;;4.30;3.90;;;22.20;54.00;;;;;;5054704;28;20426;-69
2022/05/07 12:33:38;;;;;;;3.30;3.00;;;22.10;54.20;;;;;;5054287;28;20545;-69
2022/05/07 12:36:05;;;;;;;3.90;3.60;;;22.10;55.90;;;;;;5054479;28;20450;-69
2022/05/07 12:38:32;;;;;;;4.93;4.53;;;22.20;54.40;;;;;;5054633;28;20449;-69
2022/05/07 12:41:00;;;;;;;4.30;3.90;;;21.90;53.70;;;;;;5054573;28;20533;-69
2022/05/07 12:43:28;;;;;;;4.77;4.27;;;22.00;55.60;;;;;;5054344;28;20478;-69
2022/05/07 12:45:55;;;;;;;3.60;3.30;;;21.80;56.10;;;;;;5054261;28;20481;-69
2022/05/07 12:48:22;;;;;;;3.87;3.47;;;21.80;55.90;;;;;;5054508;28;20438;-69
2022/05/07 12:50:48;;;;;;;3.90;3.60;;;21.90;55.40;;;;;;5054432;28;20533;-69
2022/05/07 12:53:15;;;;;;;3.67;3.47;;;22.00;55.50;;;;;;5053971;28;20927;-69
2022/05/07 12:55:43;;;;;;;4.47;3.63;;;22.20;55.00;;;;;;5054027;28;20536;-69
2022/05/07 12:58:12;;;;;;;3.53;3.30;;;22.40;53.80;;;;;;5054064;28;20919;-69
2022/05/07 13:00:40;;;;;;;4.03;3.60;;;22.40;54.10;;;;;;5054140;28;20442;-69
2022/05/07 13:03:07;;;;;;;3.40;3.20;;;22.50;54.10;;;;;;5053518;28;20446;-69
2022/05/07 13:05:34;;;;;;;3.70;3.40;;;22.30;53.50;;;;;;5054126;28;20485;-69
2022/05/07 13:08:03;;;;;;;3.50;3.20;;;22.10;54.00;;;;;;5054022;28;20457;-68
2022/05/07 13:10:31;;;;;;;4.37;3.97;;;22.00;54.20;;;;;;5054012;28;20446;-69
2022/05/07 13:12:58;;;;;;;3.63;3.43;;;22.00;54.10;;;;;;5053791;28;20442;-69
2022/05/07 13:15:26;;;;;;;3.90;3.40;;;22.20;54.00;;;;;;5053720;28;20940;-69